Time,TemperatureF,DewpointF,PressureIn,WindDirection,WindDirectionDegrees,WindSpeedMPH,WindSpeedGustMPH,Humidity,HourlyPrecipIn,Conditions,Clouds,dailyrainin,SoftwareType,DateUTC
2013-01-20 00:01:00,51.6,42.2,29.87,WNW,292,0.0,4.9,70,0.00,,FEW,0.00,WUHU21623XXSP,2013-01-19 22:01:00,
2013-01-20 00:04:00,51.6,42.2,29.86,SSW,202,0.0,4.9,70,0.00,,FEW,0.00,WUHU21623XXSP,2013-01-19 22:04:00,
2013-01-20 00:27:00,51.3,42.0,29.87,WSW,248,0.0,0.0,70,0.00,,BKN,0.00,WUHU21623XXSP,2013-01-19 22:27:00,
2013-01-20 01:27:00,51.3,42.0,29.86,SSE,158,0.0,0.0,70,0.00,,BKN,0.00,WUHU21623XXSP,2013-01-19 23:27:00,
2013-01-20 02:27:00,49.5,41.6,29.86,NNE,23,0.0,0.0,74,0.00,,BKN,0.00,WUHU21623XXSP,2013-01-20 00:27:00,
2013-01-20 03:27:00,51.3,41.6,29.88,WNW,293,0.0,0.0,69,0.00,,BKN,0.00,WUHU21623XXSP,2013-01-20 01:27:00,
2013-01-20 04:27:00,50.0,41.1,29.86,SE,135,0.0,0.0,71,0.00,,BKN,0.00,WUHU21623XXSP,2013-01-20 02:27:00,
2013-01-20 05:27:00,48.9,41.7,29.87,North,0,0.0,0.0,76,0.00,,BKN,0.00,WUHU21623XXSP,2013-01-20 03:27:00,
2013-01-20 06:27:00,48.4,42.2,29.89,North,0,0.0,0.0,79,0.00,,BKN,0.00,WUHU21623XXSP,2013-01-20 04:27:00,
2013-01-20 07:27:00,48.4,42.9,29.91,NE,45,0.0,0.0,81,0.00,,BKN,0.00,WUHU21623XXSP,2013-01-20 05:27:00,
2013-01-20 08:19:00,49.3,43.4,29.93,NNE,22,2.4,2.4,80,0.00,,BKN,0.00,WUHU21623XXSP,2013-01-20 06:19:00,
2013-01-20 08:20:00,49.3,43.4,29.93,NNE,22,2.4,2.4,80,0.00,,BKN,0.00,WUHU21623XXSP,2013-01-20 06:20:00,
2013-01-20 08:25:00,49.1,43.2,29.93,NNE,22,0.0,2.4,80,0.00,,BKN,0.00,WUHU21623XXSP,2013-01-20 06:25:00,
2013-01-20 08:30:00,48.9,43.3,29.93,NE,45,0.0,2.2,81,0.00,,BKN,0.00,WUHU21623XXSP,2013-01-20 06:30:00,
2013-01-20 08:35:00,48.9,43.0,29.93,NE,45,0.0,0.8,80,0.00,,BKN,0.00,WUHU21623XXSP,2013-01-20 06:35:00,
2013-01-20 08:40:00,49.5,43.9,29.93,NNE,22,0.0,1.0,81,0.00,,BKN,0.00,WUHU21623XXSP,2013-01-20 06:40:00,
2013-01-20 08:45:00,50.0,44.1,29.93,North,0,3.7,5.2,80,0.00,,BKN,0.00,WUHU21623XXSP,2013-01-20 06:45:00,
2013-01-20 08:50:00,50.2,44.0,29.93,NE,45,0.0,5.2,79,0.00,,BKN,0.00,WUHU21623XXSP,2013-01-20 06:50:00,
2013-01-20 08:54:00,50.2,44.0,29.93,NNE,22,0.0,4.0,79,0.00,,BKN,0.00,WUHU21623XXSP,2013-01-20 06:54:00,
2013-01-20 08:59:00,50.2,44.0,29.93,ENE,67,0.0,3.4,79,0.00,,BKN,0.00,WUHU21623XXSP,2013-01-20 06:59:00,
2013-01-20 09:04:00,50.4,43.9,29.93,NE,45,0.0,2.8,78,0.00,,BKN,0.00,WUHU21623XXSP,2013-01-20 07:04:00,
2013-01-20 09:10:00,50.5,43.6,29.93,NNE,22,0.0,3.4,77,0.00,,BKN,0.00,WUHU21623XXSP,2013-01-20 07:10:00,
2013-01-20 09:15:00,50.7,43.8,29.93,NE,45,0.0,4.0,77,0.00,,BKN,0.00,WUHU21623XXSP,2013-01-20 07:15:00,
2013-01-20 09:20:00,50.7,43.8,29.94,North,0,0.0,4.0,77,0.00,,BKN,0.00,WUHU21623XXSP,2013-01-20 07:20:00,
2013-01-20 09:25:00,50.9,44.0,29.94,NNE,22,2.0,3.2,77,0.00,,BKN,0.00,WUHU21623XXSP,2013-01-20 07:25:00,
2013-01-20 09:30:00,50.9,44.0,29.93,NE,45,0.0,3.2,77,0.00,,BKN,0.00,WUHU21623XXSP,2013-01-20 07:30:00,
2013-01-20 09:35:00,51.1,43.9,29.93,North,0,0.0,1.8,76,0.00,,BKN,0.00,WUHU21623XXSP,2013-01-20 07:35:00,
2013-01-20 09:40:00,51.3,44.1,29.94,NNE,22,0.0,1.8,76,0.00,,BKN,0.00,WUHU21623XXSP,2013-01-20 07:40:00,
2013-01-20 09:45:00,51.4,44.2,29.94,NNE,22,0.8,1.8,76,0.00,,BKN,0.00,WUHU21623XXSP,2013-01-20 07:45:00,
2013-01-20 09:50:00,51.6,44.4,29.94,North,0,0.0,2.0,76,0.00,,BKN,0.00,WUHU21623XXSP,2013-01-20 07:50:00,
2013-01-20 09:55:00,51.8,44.2,29.95,NE,45,0.0,2.0,75,0.00,,BKN,0.00,WUHU21623XXSP,2013-01-20 07:55:00,
2013-01-20 10:00:00,52.0,44.4,29.94,North,0,0.0,1.2,75,0.00,,BKN,0.00,WUHU21623XXSP,2013-01-20 08:00:00,
2013-01-20 10:05:00,52.2,44.6,29.94,NE,45,0.0,1.2,75,0.00,,BKN,0.00,WUHU21623XXSP,2013-01-20 08:05:00,
2013-01-20 10:10:00,52.3,44.7,29.95,NE,45,0.0,0.0,75,0.00,,BKN,0.00,WUHU21623XXSP,2013-01-20 08:10:00,
2013-01-20 10:15:00,52.7,44.7,29.95,North,0,0.0,0.0,74,0.00,,BKN,0.00,WUHU21623XXSP,2013-01-20 08:15:00,
2013-01-20 10:20:00,52.9,44.6,29.95,NNW,337,0.0,0.0,73,0.00,,BKN,0.00,WUHU21623XXSP,2013-01-20 08:20:00,
2013-01-20 10:25:00,53.2,44.9,29.95,North,0,0.0,0.0,73,0.00,,BKN,0.00,WUHU21623XXSP,2013-01-20 08:25:00,
2013-01-20 10:30:00,53.6,44.9,29.95,North,0,2.0,2.2,72,0.00,,BKN,0.00,WUHU21623XXSP,2013-01-20 08:30:00,
2013-01-20 10:35:00,54.0,44.9,29.96,NNW,337,0.0,2.8,71,0.00,,BKN,0.00,WUHU21623XXSP,2013-01-20 08:35:00,
2013-01-20 10:40:00,54.1,44.6,29.95,North,0,0.0,3.2,70,0.00,,BKN,0.00,WUHU21623XXSP,2013-01-20 08:40:00,
2013-01-20 10:45:00,54.7,44.8,29.96,NE,45,0.0,4.7,69,0.00,,BKN,0.00,WUHU21623XXSP,2013-01-20 08:45:00,
2013-01-20 10:50:00,55.0,44.8,29.96,ENE,67,0.0,4.7,68,0.00,,BKN,0.00,WUHU21623XXSP,2013-01-20 08:50:00,
2013-01-20 10:55:00,55.8,45.1,29.96,ESE,112,0.0,0.0,67,0.00,,BKN,0.00,WUHU21623XXSP,2013-01-20 08:55:00,
2013-01-20 11:00:00,55.9,43.6,29.95,NE,45,0.0,0.0,63,0.00,,BKN,0.00,WUHU21623XXSP,2013-01-20 09:00:00,
2013-01-20 11:05:00,55.9,43.6,29.95,NNE,22,0.0,0.0,63,0.00,,BKN,0.00,WUHU21623XXSP,2013-01-20 09:05:00,
2013-01-20 11:10:00,56.7,43.5,29.95,NNW,337,0.0,0.0,61,0.00,,BKN,0.00,WUHU21623XXSP,2013-01-20 09:10:00,
2013-01-20 11:15:00,56.8,43.2,29.95,NNE,22,0.0,0.0,60,0.00,,BKN,0.00,WUHU21623XXSP,2013-01-20 09:15:00,
2013-01-20 11:20:00,57.6,43.5,29.94,North,0,0.0,0.0,59,0.00,,BKN,0.00,WUHU21623XXSP,2013-01-20 09:20:00,
2013-01-20 11:25:00,57.9,42.9,29.94,North,0,0.0,0.0,57,0.00,,BKN,0.00,WUHU21623XXSP,2013-01-20 09:25:00,
2013-01-20 11:30:00,58.5,42.9,29.94,North,0,0.0,1.0,56,0.00,,BKN,0.00,WUHU21623XXSP,2013-01-20 09:30:00,
2013-01-20 11:35:00,59.2,43.1,29.94,ESE,112,0.0,1.0,55,0.00,,BKN,0.00,WUHU21623XXSP,2013-01-20 09:35:00,
2013-01-20 11:40:00,59.9,43.3,29.94,North,0,0.0,0.0,54,0.00,,BKN,0.00,WUHU21623XXSP,2013-01-20 09:40:00,
2013-01-20 11:45:00,59.9,42.3,29.94,NE,45,0.0,1.4,52,0.00,,BKN,0.00,WUHU21623XXSP,2013-01-20 09:45:00,
2013-01-20 11:50:00,60.6,42.9,29.94,SW,225,0.0,1.4,52,0.00,,BKN,0.00,WUHU21623XXSP,2013-01-20 09:50:00,
2013-01-20 11:55:00,61.0,42.8,29.94,ENE,67,1.8,3.4,51,0.00,,BKN,0.00,WUHU21623XXSP,2013-01-20 09:55:00,
2013-01-20 12:00:00,61.0,42.8,29.94,ENE,67,0.0,3.4,51,0.00,,BKN,0.00,WUHU21623XXSP,2013-01-20 10:00:00,
2013-01-20 12:05:00,61.9,43.6,29.93,SE,135,3.4,4.9,51,0.00,,BKN,0.00,WUHU21623XXSP,2013-01-20 10:05:00,
2013-01-20 12:10:00,61.5,42.7,29.93,South,180,4.0,4.9,50,0.00,,BKN,0.00,WUHU21623XXSP,2013-01-20 10:10:00,
2013-01-20 12:15:00,61.5,43.8,29.92,ESE,112,0.0,4.0,52,0.00,,BKN,0.00,WUHU21623XXSP,2013-01-20 10:15:00,
2013-01-20 12:20:00,61.5,43.2,29.92,SSE,157,2.8,4.2,51,0.00,,BKN,0.00,WUHU21623XXSP,2013-01-20 10:20:00,
2013-01-20 12:25:00,62.1,43.8,29.92,SSE,157,0.0,4.2,51,0.00,,BKN,0.00,WUHU21623XXSP,2013-01-20 10:25:00,
2013-01-20 12:30:00,62.8,43.9,29.92,South,180,1.2,6.4,50,0.00,,BKN,0.00,WUHU21623XXSP,2013-01-20 10:30:00,
2013-01-20 12:35:00,62.6,43.7,29.92,South,180,1.0,6.6,50,0.00,,BKN,0.00,WUHU21623XXSP,2013-01-20 10:35:00,
2013-01-20 12:40:00,62.6,43.7,29.92,South,180,0.0,6.6,50,0.00,,BKN,0.00,WUHU21623XXSP,2013-01-20 10:40:00,
2013-01-20 12:45:00,62.6,44.3,29.92,WSW,247,0.0,3.4,51,0.00,,BKN,0.00,WUHU21623XXSP,2013-01-20 10:45:00,
2013-01-20 12:50:00,62.2,43.9,29.92,SSW,202,0.0,3.4,51,0.00,,BKN,0.00,WUHU21623XXSP,2013-01-20 10:50:00,
2013-01-20 12:55:00,62.2,44.4,29.92,ESE,112,0.0,0.0,52,0.00,,BKN,0.00,WUHU21623XXSP,2013-01-20 10:55:00,
2013-01-20 13:00:00,62.4,44.1,29.91,WSW,247,0.0,0.0,51,0.00,,BKN,0.00,WUHU21623XXSP,2013-01-20 11:00:00,
2013-01-20 13:05:00,62.2,44.4,29.91,South,180,0.0,0.0,52,0.00,,BKN,0.00,WUHU21623XXSP,2013-01-20 11:05:00,
2013-01-20 13:10:00,62.4,44.1,29.91,South,180,1.4,4.4,51,0.00,,BKN,0.00,WUHU21623XXSP,2013-01-20 11:10:00,
2013-01-20 13:15:00,62.8,45.5,29.91,WSW,247,3.7,6.6,53,0.00,,BKN,0.00,WUHU21623XXSP,2013-01-20 11:15:00,
2013-01-20 13:20:00,62.6,45.3,29.91,NNW,337,0.0,6.6,53,0.00,,BKN,0.00,WUHU21623XXSP,2013-01-20 11:20:00,
2013-01-20 13:25:00,62.8,46.0,29.91,SSW,202,2.0,5.9,54,0.00,,BKN,0.00,WUHU21623XXSP,2013-01-20 11:25:00,
2013-01-20 13:30:00,62.6,45.3,29.90,SSE,157,4.0,8.1,53,0.00,,BKN,0.00,WUHU21623XXSP,2013-01-20 11:30:00,
2013-01-20 13:35:00,62.8,45.5,29.90,South,180,2.4,8.6,53,0.00,,SCT,0.00,WUHU21623XXSP,2013-01-20 11:35:00,
2013-01-20 13:40:00,62.2,44.9,29.90,SW,225,4.0,8.6,53,0.00,,SCT,0.00,WUHU21623XXSP,2013-01-20 11:40:00,
2013-01-20 13:45:00,62.8,45.5,29.90,SSW,202,3.7,5.4,53,0.00,,SCT,0.00,WUHU21623XXSP,2013-01-20 11:45:00,
2013-01-20 13:50:00,63.1,46.3,29.90,SE,135,2.0,5.4,54,0.00,,SCT,0.00,WUHU21623XXSP,2013-01-20 11:50:00,
2013-01-20 13:55:00,63.1,45.8,29.90,SSE,157,2.2,5.6,53,0.00,,SCT,0.00,WUHU21623XXSP,2013-01-20 11:55:00,
2013-01-20 14:00:00,63.0,46.2,29.90,SSW,202,0.0,6.2,54,0.00,,SCT,0.00,WUHU21623XXSP,2013-01-20 12:00:00,
2013-01-20 14:05:00,63.0,46.7,29.90,South,180,0.0,6.2,55,0.00,,SCT,0.00,WUHU21623XXSP,2013-01-20 12:05:00,
2013-01-20 14:10:00,63.1,46.8,29.90,West,270,0.0,5.9,55,0.00,,SCT,0.00,WUHU21623XXSP,2013-01-20 12:10:00,
2013-01-20 14:15:00,63.1,46.3,29.90,South,180,2.4,8.6,54,0.00,,SCT,0.00,WUHU21623XXSP,2013-01-20 12:15:00,
2013-01-20 14:20:00,63.3,46.5,29.90,South,180,0.0,8.6,54,0.00,,SCT,0.00,WUHU21623XXSP,2013-01-20 12:20:00,
2013-01-20 14:25:00,63.3,46.5,29.90,South,180,0.0,7.2,54,0.00,,SCT,0.00,WUHU21623XXSP,2013-01-20 12:25:00,
2013-01-20 14:30:00,63.3,46.5,29.90,South,180,0.0,7.9,54,0.00,,SCT,0.00,WUHU21623XXSP,2013-01-20 12:30:00,
2013-01-20 14:35:00,63.3,46.5,29.90,SSW,202,0.0,7.9,54,0.00,,SCT,0.00,WUHU21623XXSP,2013-01-20 12:35:00,
2013-01-20 14:40:00,63.3,47.0,29.90,SW,225,0.0,5.9,55,0.00,,SCT,0.00,WUHU21623XXSP,2013-01-20 12:40:00,
2013-01-20 14:45:00,63.3,47.0,29.90,NW,315,0.0,5.9,55,0.00,,SCT,0.00,WUHU21623XXSP,2013-01-20 12:45:00,
2013-01-20 14:50:00,63.3,47.4,29.90,West,270,0.0,3.4,56,0.00,,SCT,0.00,WUHU21623XXSP,2013-01-20 12:50:00,
2013-01-20 14:55:00,63.5,47.6,29.90,SSE,157,0.0,3.4,56,0.00,,SCT,0.00,WUHU21623XXSP,2013-01-20 12:55:00,
2013-01-20 15:00:00,63.5,47.6,29.90,SSW,202,2.8,7.6,56,0.00,,SCT,0.00,WUHU21623XXSP,2013-01-20 13:00:00,
2013-01-20 15:05:00,63.7,48.3,29.90,NW,315,0.0,7.6,57,0.00,,SCT,0.00,WUHU21623XXSP,2013-01-20 13:05:00,
2013-01-20 15:10:00,63.9,48.5,29.90,SW,225,4.2,7.9,57,0.00,,SCT,0.00,WUHU21623XXSP,2013-01-20 13:10:00,
2013-01-20 15:15:00,63.5,48.6,29.91,SSE,157,0.0,8.1,58,0.00,,SCT,0.00,WUHU21623XXSP,2013-01-20 13:15:00,
2013-01-20 15:20:00,63.5,49.1,29.90,WNW,292,0.0,8.1,59,0.00,,SCT,0.00,WUHU21623XXSP,2013-01-20 13:20:00,
2013-01-20 15:25:00,63.5,49.5,29.90,SW,225,5.2,7.9,60,0.00,,SCT,0.00,WUHU21623XXSP,2013-01-20 13:25:00,
2013-01-20 15:30:00,63.7,50.1,29.90,SW,225,3.7,7.6,61,0.00,,SCT,0.00,WUHU21623XXSP,2013-01-20 13:30:00,
2013-01-20 15:35:00,63.9,50.3,29.90,SSE,157,4.7,8.1,61,0.00,,SCT,0.00,WUHU21623XXSP,2013-01-20 13:35:00,
2013-01-20 15:40:00,63.9,49.9,29.90,South,180,0.0,8.4,60,0.00,,SCT,0.00,WUHU21623XXSP,2013-01-20 13:40:00,
2013-01-20 15:45:00,64.0,50.0,29.90,SW,225,5.6,8.4,60,0.00,,SCT,0.00,WUHU21623XXSP,2013-01-20 13:45:00,
2013-01-20 15:50:00,64.2,50.6,29.90,South,180,4.4,6.6,61,0.00,,SCT,0.00,WUHU21623XXSP,2013-01-20 13:50:00,
2013-01-20 15:55:00,64.0,50.4,29.90,SSW,202,1.8,5.9,61,0.00,,SCT,0.00,WUHU21623XXSP,2013-01-20 13:55:00,
2013-01-20 16:00:00,64.0,51.3,29.90,South,180,4.7,7.6,63,0.00,,SCT,0.00,WUHU21623XXSP,2013-01-20 14:00:00,
2013-01-20 16:05:00,63.9,51.6,29.90,WSW,247,3.2,9.4,64,0.00,,SCT,0.00,WUHU21623XXSP,2013-01-20 14:05:00,
2013-01-20 16:10:00,63.5,52.1,29.91,SE,135,0.0,9.4,66,0.00,,SCT,0.00,WUHU21623XXSP,2013-01-20 14:10:00,
2013-01-20 16:15:00,63.5,52.5,29.91,SE,135,0.0,5.9,67,0.00,,SCT,0.00,WUHU21623XXSP,2013-01-20 14:15:00,
2013-01-20 16:20:00,63.3,52.3,29.90,SSE,157,0.0,8.9,67,0.00,,SCT,0.00,WUHU21623XXSP,2013-01-20 14:20:00,
2013-01-20 16:25:00,63.0,52.8,29.90,ESE,112,4.2,9.4,69,0.00,,SCT,0.00,WUHU21623XXSP,2013-01-20 14:25:00,
2013-01-20 16:30:00,62.8,53.0,29.91,SSW,202,2.8,9.4,70,0.00,,SCT,0.00,WUHU21623XXSP,2013-01-20 14:30:00,
2013-01-20 16:35:00,62.4,53.4,29.91,SW,225,0.0,10.8,72,0.00,,SCT,0.00,WUHU21623XXSP,2013-01-20 14:35:00,
2013-01-20 16:40:00,62.2,53.2,29.91,WSW,247,1.8,10.8,72,0.00,,FEW,0.00,WUHU21623XXSP,2013-01-20 14:40:00,
2013-01-20 16:45:00,62.1,53.5,29.91,SSW,202,2.0,12.5,73,0.00,,FEW,0.00,WUHU21623XXSP,2013-01-20 14:45:00,
2013-01-20 16:50:00,62.1,53.8,29.91,SSW,202,0.8,12.5,74,0.00,,FEW,0.00,WUHU21623XXSP,2013-01-20 14:50:00,
2013-01-20 16:55:00,61.9,53.6,29.91,SE,135,0.0,9.1,74,0.00,,FEW,0.00,WUHU21623XXSP,2013-01-20 14:55:00,
2013-01-20 17:00:00,61.9,53.6,29.91,South,180,2.2,9.1,74,0.00,,FEW,0.00,WUHU21623XXSP,2013-01-20 15:00:00,
2013-01-20 17:05:00,61.7,53.8,29.91,SSE,157,3.4,9.8,75,0.00,,FEW,0.00,WUHU21623XXSP,2013-01-20 15:05:00,
2013-01-20 17:10:00,61.5,53.3,29.91,SSW,202,4.9,9.8,74,0.00,,FEW,0.00,WUHU21623XXSP,2013-01-20 15:10:00,
2013-01-20 17:15:00,61.3,53.4,29.91,South,180,0.0,9.4,75,0.00,,FEW,0.00,WUHU21623XXSP,2013-01-20 15:15:00,
2013-01-20 17:20:00,61.3,53.8,29.91,SW,225,1.4,7.4,76,0.00,,FEW,0.00,WUHU21623XXSP,2013-01-20 15:20:00,
2013-01-20 17:25:00,61.2,53.7,29.91,SSW,202,1.0,8.1,76,0.00,,FEW,0.00,WUHU21623XXSP,2013-01-20 15:25:00,
2013-01-20 17:30:00,60.8,53.3,29.91,SSW,202,0.0,8.1,76,0.00,,FEW,0.00,WUHU21623XXSP,2013-01-20 15:30:00,
2013-01-20 17:35:00,60.4,53.2,29.91,SSE,157,0.0,3.0,77,0.00,,FEW,0.00,WUHU21623XXSP,2013-01-20 15:35:00,
2013-01-20 17:40:00,60.4,53.2,29.91,South,180,0.0,10.6,77,0.00,,FEW,0.00,WUHU21623XXSP,2013-01-20 15:40:00,
2013-01-20 17:45:00,60.4,52.9,29.91,South,180,0.0,10.6,76,0.00,,FEW,0.00,WUHU21623XXSP,2013-01-20 15:45:00,
2013-01-20 17:50:00,60.4,52.9,29.91,WSW,247,0.0,6.9,76,0.00,,FEW,0.00,WUHU21623XXSP,2013-01-20 15:50:00,
2013-01-20 17:55:00,60.3,53.1,29.91,South,180,2.2,4.9,77,0.00,,FEW,0.00,WUHU21623XXSP,2013-01-20 15:55:00,
2013-01-20 18:00:00,60.3,53.1,29.91,WSW,247,1.8,8.9,77,0.00,,FEW,0.00,WUHU21623XXSP,2013-01-20 16:00:00,
2013-01-20 18:05:00,60.1,53.0,29.91,WSW,247,4.7,8.9,77,0.00,,FEW,0.00,WUHU21623XXSP,2013-01-20 16:05:00,
2013-01-20 18:10:00,59.9,52.8,29.91,SSW,202,0.8,5.9,77,0.00,,FEW,0.00,WUHU21623XXSP,2013-01-20 16:10:00,
2013-01-20 18:15:00,59.9,52.8,29.91,SW,225,1.8,4.9,77,0.00,,FEW,0.00,WUHU21623XXSP,2013-01-20 16:15:00,
2013-01-20 18:20:00,59.9,52.8,29.92,SE,135,0.0,6.2,77,0.00,,FEW,0.00,WUHU21623XXSP,2013-01-20 16:20:00,
2013-01-20 18:25:00,59.5,52.7,29.91,NNE,22,0.0,6.2,78,0.00,,FEW,0.00,WUHU21623XXSP,2013-01-20 16:25:00,
2013-01-20 18:30:00,59.2,52.4,29.92,NNE,22,0.0,0.0,78,0.00,,FEW,0.00,WUHU21623XXSP,2013-01-20 16:30:00,
2013-01-20 18:35:00,59.0,52.9,29.92,SSE,157,0.0,3.2,80,0.00,,FEW,0.00,WUHU21623XXSP,2013-01-20 16:35:00,
2013-01-20 18:40:00,58.8,52.7,29.92,ESE,112,0.0,3.2,80,0.00,,FEW,0.00,WUHU21623XXSP,2013-01-20 16:40:00,
2013-01-20 18:45:00,59.2,53.4,29.92,SSW,202,0.0,7.2,81,0.00,,FEW,0.00,WUHU21623XXSP,2013-01-20 16:45:00,
2013-01-20 18:50:00,59.4,53.3,29.92,South,180,0.0,7.6,80,0.00,,FEW,0.00,WUHU21623XXSP,2013-01-20 16:50:00,
2013-01-20 18:55:00,59.4,53.3,29.92,SE,135,0.8,7.6,80,0.00,,FEW,0.00,WUHU21623XXSP,2013-01-20 16:55:00,
2013-01-20 19:00:00,59.4,53.3,29.92,SSW,202,2.0,5.9,80,0.00,,FEW,0.00,WUHU21623XXSP,2013-01-20 17:00:00,
2013-01-20 19:05:00,59.5,53.0,29.92,SSE,157,0.0,5.9,79,0.00,,FEW,0.00,WUHU21623XXSP,2013-01-20 17:05:00,
2013-01-20 19:10:00,59.2,52.8,29.92,South,180,0.0,5.6,79,0.00,,FEW,0.00,WUHU21623XXSP,2013-01-20 17:10:00,
2013-01-20 19:15:00,58.8,52.7,29.93,SSE,157,0.0,4.2,80,0.00,,FEW,0.00,WUHU21623XXSP,2013-01-20 17:15:00,
2013-01-20 19:20:00,59.0,52.9,29.92,East,90,0.0,5.4,80,0.00,,FEW,0.00,WUHU21623XXSP,2013-01-20 17:20:00,
2013-01-20 19:25:00,58.8,53.0,29.92,SE,135,0.0,5.4,81,0.00,,FEW,0.00,WUHU21623XXSP,2013-01-20 17:25:00,
2013-01-20 19:30:00,58.6,52.8,29.92,WNW,292,0.0,2.4,81,0.00,,FEW,0.00,WUHU21623XXSP,2013-01-20 17:30:00,
2013-01-20 19:35:00,58.5,52.7,29.93,NW,315,0.0,0.0,81,0.00,,FEW,0.00,WUHU21623XXSP,2013-01-20 17:35:00,
2013-01-20 19:40:00,58.1,52.7,29.93,South,180,0.0,0.0,82,0.00,,FEW,0.00,WUHU21623XXSP,2013-01-20 17:40:00,
2013-01-20 19:45:00,58.1,53.0,29.93,SSW,202,0.0,1.0,83,0.00,,FEW,0.00,WUHU21623XXSP,2013-01-20 17:45:00,
2013-01-20 19:50:00,58.5,53.4,29.93,SSE,157,0.0,6.6,83,0.00,,FEW,0.00,WUHU21623XXSP,2013-01-20 17:50:00,
2013-01-20 19:55:00,58.6,53.5,29.93,SSE,157,4.0,6.6,83,0.00,,FEW,0.00,WUHU21623XXSP,2013-01-20 17:55:00,
2013-01-20 20:00:00,59.0,53.5,29.93,SE,135,5.9,9.4,82,0.00,,FEW,0.00,WUHU21623XXSP,2013-01-20 18:00:00,
2013-01-20 20:05:00,59.2,53.4,29.93,South,180,3.2,9.4,81,0.00,,FEW,0.00,WUHU21623XXSP,2013-01-20 18:05:00,
2013-01-20 20:10:00,59.2,53.4,29.93,SSW,202,3.2,9.4,81,0.00,,FEW,0.00,WUHU21623XXSP,2013-01-20 18:10:00,
2013-01-20 20:15:00,59.2,53.4,29.93,SE,135,2.4,6.9,81,0.00,,FEW,0.00,WUHU21623XXSP,2013-01-20 18:15:00,
2013-01-20 20:20:00,59.2,53.1,29.93,SSW,202,0.0,6.9,80,0.00,,FEW,0.00,WUHU21623XXSP,2013-01-20 18:20:00,
2013-01-20 20:25:00,59.2,53.4,29.93,SE,135,1.0,7.4,81,0.00,,FEW,0.00,WUHU21623XXSP,2013-01-20 18:25:00,
2013-01-20 20:30:00,59.4,53.6,29.93,ESE,112,0.0,7.4,81,0.00,,FEW,0.00,WUHU21623XXSP,2013-01-20 18:30:00,
2013-01-20 20:35:00,59.2,53.4,29.93,SSE,157,3.4,4.7,81,0.00,,FEW,0.00,WUHU21623XXSP,2013-01-20 18:35:00,
2013-01-20 20:40:00,59.2,53.4,29.94,East,90,0.0,4.7,81,0.00,,FEW,0.00,WUHU21623XXSP,2013-01-20 18:40:00,
2013-01-20 20:45:00,59.2,53.4,29.93,ENE,67,0.0,4.2,81,0.00,,FEW,0.00,WUHU21623XXSP,2013-01-20 18:45:00,
2013-01-20 20:50:00,58.8,53.0,29.93,SSE,157,2.2,2.2,81,0.00,,FEW,0.00,WUHU21623XXSP,2013-01-20 18:50:00,
2013-01-20 20:55:00,58.6,52.8,29.93,South,180,2.8,5.2,81,0.00,,FEW,0.00,WUHU21623XXSP,2013-01-20 18:55:00,
2013-01-20 21:01:00,58.5,53.1,29.93,South,180,0.0,5.2,82,0.00,,FEW,0.00,WUHU21623XXSP,2013-01-20 19:01:00,
2013-01-20 21:05:00,58.5,53.1,29.93,NNW,337,0.0,0.0,82,0.00,,FEW,0.00,WUHU21623XXSP,2013-01-20 19:05:00,
2013-01-20 21:10:00,58.1,52.7,29.93,SE,135,0.0,3.0,82,0.00,,FEW,0.00,WUHU21623XXSP,2013-01-20 19:10:00,
2013-01-20 21:15:00,57.9,52.5,29.94,SW,225,0.0,3.0,82,0.00,,FEW,0.00,WUHU21623XXSP,2013-01-20 19:15:00,
2013-01-20 21:20:00,57.9,53.1,29.94,SW,225,2.2,7.2,84,0.00,,FEW,0.00,WUHU21623XXSP,2013-01-20 19:20:00,
2013-01-20 21:25:00,57.9,53.4,29.94,South,180,1.8,7.2,85,0.00,,FEW,0.00,WUHU21623XXSP,2013-01-20 19:25:00,
2013-01-20 21:30:00,58.1,53.3,29.94,SSE,157,1.8,9.1,84,0.00,,FEW,0.00,WUHU21623XXSP,2013-01-20 19:30:00,
2013-01-20 21:36:00,58.1,53.3,29.94,South,180,2.4,12.3,84,0.00,,FEW,0.00,WUHU21623XXSP,2013-01-20 19:36:00,
2013-01-20 21:41:00,58.1,53.3,29.94,South,180,2.4,12.3,84,0.00,,FEW,0.00,WUHU21623XXSP,2013-01-20 19:41:00,
2013-01-20 21:46:00,58.1,53.3,29.94,South,180,3.2,9.4,84,0.00,,FEW,0.00,WUHU21623XXSP,2013-01-20 19:46:00,
2013-01-20 21:51:00,58.1,53.6,29.94,SE,135,0.8,7.6,85,0.00,,FEW,0.00,WUHU21623XXSP,2013-01-20 19:51:00,
2013-01-20 21:56:00,58.1,53.3,29.94,SSW,202,4.2,8.1,84,0.00,,FEW,0.00,WUHU21623XXSP,2013-01-20 19:56:00,
2013-01-20 22:01:00,58.1,53.3,29.94,SW,225,3.4,8.1,84,0.00,,FEW,0.00,WUHU21623XXSP,2013-01-20 20:01:00,
2013-01-20 22:06:00,57.9,53.4,29.94,SW,225,1.8,6.4,85,0.00,,FEW,0.00,WUHU21623XXSP,2013-01-20 20:06:00,
2013-01-20 22:11:00,57.9,53.7,29.95,SW,225,8.4,8.4,86,0.00,,FEW,0.00,WUHU21623XXSP,2013-01-20 20:11:00,
2013-01-20 22:16:00,57.9,53.7,29.95,SSW,202,5.4,8.4,86,0.00,,FEW,0.00,WUHU21623XXSP,2013-01-20 20:16:00,
2013-01-20 22:21:00,57.7,53.5,29.95,SW,225,4.4,11.8,86,0.00,,FEW,0.00,WUHU21623XXSP,2013-01-20 20:21:00,
2013-01-20 22:26:00,57.7,53.5,29.95,SW,225,4.4,11.8,86,0.00,,FEW,0.00,WUHU21623XXSP,2013-01-20 20:26:00,
2013-01-20 22:31:00,57.9,53.7,29.94,NW,315,0.0,9.1,86,0.00,,FEW,0.00,WUHU21623XXSP,2013-01-20 20:31:00,
2013-01-20 22:36:00,57.9,53.4,29.95,South,180,0.0,7.2,85,0.00,,FEW,0.00,WUHU21623XXSP,2013-01-20 20:36:00,
2013-01-20 22:41:00,57.9,53.4,29.95,SW,225,0.0,7.4,85,0.00,,FEW,0.00,WUHU21623XXSP,2013-01-20 20:41:00,
2013-01-20 22:46:00,57.7,52.9,29.95,SSW,202,0.0,7.4,84,0.00,,FEW,0.00,WUHU21623XXSP,2013-01-20 20:46:00,
2013-01-20 22:51:00,57.6,52.8,29.95,SW,225,0.0,4.2,84,0.00,,FEW,0.00,WUHU21623XXSP,2013-01-20 20:51:00,
2013-01-20 22:56:00,57.6,52.5,29.95,South,180,0.0,1.8,83,0.00,,FEW,0.00,WUHU21623XXSP,2013-01-20 20:56:00,
2013-01-20 23:01:00,57.4,52.3,29.95,SSE,157,0.0,5.4,83,0.00,,FEW,0.00,WUHU21623XXSP,2013-01-20 21:01:00,
2013-01-20 23:06:00,57.2,52.1,29.95,SSE,157,3.4,7.2,83,0.00,,FEW,0.00,WUHU21623XXSP,2013-01-20 21:06:00,
2013-01-20 23:11:00,57.4,52.0,29.95,SSE,157,2.2,7.2,82,0.00,,FEW,0.00,WUHU21623XXSP,2013-01-20 21:11:00,
2013-01-20 23:16:00,57.4,52.0,29.95,SSW,202,0.0,4.7,82,0.00,,FEW,0.00,WUHU21623XXSP,2013-01-20 21:16:00,
2013-01-20 23:21:00,57.4,51.7,29.95,SW,225,0.0,8.9,81,0.00,,FEW,0.00,WUHU21623XXSP,2013-01-20 21:21:00,
2013-01-20 23:26:00,57.6,51.5,29.95,South,180,0.0,8.9,80,0.00,,FEW,0.00,WUHU21623XXSP,2013-01-20 21:26:00,
2013-01-20 23:31:00,57.6,51.5,29.94,SSE,157,0.0,3.4,80,0.00,,FEW,0.00,WUHU21623XXSP,2013-01-20 21:31:00,
2013-01-20 23:36:00,57.6,51.2,29.94,South,180,0.0,2.2,79,0.00,,FEW,0.00,WUHU21623XXSP,2013-01-20 21:36:00,